Latest Weather Observations for Warruwi

IDD60801

Issued at 12:51 am CST Monday 17 December 2018 (issued every 10 minutes, with the page automatically refreshed every 10 minutes)

About weather observations | Map of weather stations | Latest weather observations for NT | Other Formats
Station Details ID: 014401 Name: WARRUWI AIRPORT Lat: -11.65 Lon: 133.38 Height: 19.2 m
Data from the previous 72 hours. | See also: Recent months at Warruwi
Date/Time
CST
Temp
°C
App
Temp
°C
Dew
Point
°C
Rel
Hum
%
Delta-T
°C
Wind Press
QNH
hPa
Press
MSL
hPa
Rain since
9am
mm
Dir  Spd
km/h
Gust
km/h
Spd
kts
Gust
kts
15/02:00pm 33.2 38.3 25.5 64 5.5 NNW 9 17 5 9 1005.0 1004.8 0.0
15/01:30pm 33.4 38.9 26.2 66 5.2 NW 9 20 5 11 1005.3 1005.1 0.0
15/01:00pm 33.4 38.5 25.6 63 5.6 NNW 9 15 5 8 1005.6 1005.4 0.0
15/12:30pm 34.0 39.0 25.4 61 6.1 W 9 15 5 8 1006.1 1005.9 0.0
15/12:00pm 34.1 39.0 24.7 58 6.7 W 7 13 4 7 1006.7 1006.5 0.0
15/11:30am 32.9 37.0 24.6 61 5.9 WNW 11 19 6 10 1007.0 1006.8 0.0
15/11:00am 32.6 36.5 24.9 64 5.4 W 13 19 7 10 1007.3 1007.1 0.0
15/10:30am 31.8 35.3 24.9 67 4.9 WNW 15 20 8 11 1007.7 1007.5 0.0
15/10:00am 31.2 36.3 25.5 71 4.0 WNW 9 17 5 9 1007.9 1007.7 0.0
15/09:30am 31.1 34.7 25.0 70 4.3 W 15 22 8 12 1007.8 1007.6 0.0
15/09:00am 30.7 35.3 25.3 73 3.8 W 11 19 6 10 1007.7 1007.5 0.0
15/08:30am 30.5 34.4 24.9 72 3.9 WSW 13 19 7 10 1007.3 1007.1 0.0
15/08:00am 30.3 34.5 25.4 75 3.5 WSW 13 17 7 9 1007.0 1006.8 0.0
15/07:30am 29.8 34.7 25.8 79 2.8 WSW 11 19 6 10 1006.7 1006.5 0.0
15/07:00am 29.3 33.4 25.7 81 2.5 SW 15 20 8 11 1006.2 1006.0 0.0
15/06:30am 29.3 33.9 25.9 82 2.4 WSW 13 20 7 11 1006.1 1005.9 0.0
15/06:00am 29.2 32.9 25.8 82 2.4 W 17 24 9 13 1005.6 1005.4 0.0
15/05:30am 29.4 32.8 25.8 81 2.6 W 19 26 10 14 1005.3 1005.1 0.0
15/05:00am 29.4 32.8 25.8 81 2.6 W 19 26 10 14 1005.0 1004.8 0.0
15/04:30am 29.4 32.7 26.0 82 2.4 W 20 28 11 15 1004.9 1004.7 0.0
15/04:00am 29.3 33.5 25.9 82 2.4 W 15 24 8 13 1004.5 1004.3 0.0
15/03:30am 29.5 33.4 26.1 82 2.4 W 17 26 9 14 1004.8 1004.6 0.0
15/03:00am 29.4 33.3 26.0 82 2.4 W 17 20 9 11 1004.7 1004.5 0.0
15/02:30am 29.6 33.1 26.0 81 2.6 W 19 24 10 13 1004.9 1004.7 0.0
15/02:00am 29.6 33.1 26.0 81 2.6 W 19 28 10 15 1004.9 1004.7 0.0
15/01:30am 29.5 33.3 25.9 81 2.6 WNW 17 30 9 16 1004.7 1004.5 0.0
15/01:00am 29.5 34.2 26.1 82 2.4 WNW 13 24 7 13 1005.0 1004.8 0.0
15/12:30am 29.6 34.4 26.2 82 2.4 WNW 13 22 7 12 1005.4 1005.2 0.0
15/12:00am 29.8 34.0 26.0 80 2.7 WNW 15 24 8 13 1005.6 1005.4 0.0
 
Date/Time
CST
Temp
°C
App
Temp
°C
Dew
Point
°C
Rel
Hum
%
Delta-T
°C
Wind Press
QNH
hPa
Press
MSL
hPa
Rain since
9am
mm
Dir  Spd
km/h
Gust
km/h
Spd
kts
Gust
kts
14/11:30pm 29.8 34.0 26.0 80 2.7 W 15 22 8 12 1005.8 1005.6 0.0
14/11:00pm 30.0 34.5 26.4 81 2.6 WNW 15 24 8 13 1005.7 1005.5 0.0
14/10:30pm 30.0 35.3 26.4 81 2.6 WNW 11 20 6 11 1005.6 1005.4 0.0
14/10:00pm 30.5 35.4 25.8 76 3.3 WNW 11 22 6 12 1005.7 1005.5 0.0
14/09:30pm 31.4 35.8 24.5 67 4.8 WSW 9 15 5 8 1005.8 1005.6 0.0
14/09:00pm 31.5 35.3 24.1 65 5.2 W 11 15 6 8 1005.7 1005.5 0.0
14/08:30pm 31.6 35.9 24.2 65 5.2 WSW 9 13 5 7 1005.3 1005.1 0.0
14/08:00pm 31.8 34.7 23.9 63 5.5 W 15 20 8 11 1004.6 1004.4 0.0
14/07:30pm 31.9 34.7 23.7 62 5.7 WNW 15 22 8 12 1004.0 1003.8 0.0
14/07:00pm 31.9 34.8 24.5 65 5.2 WNW 17 24 9 13 1003.8 1003.6 0.0
14/06:30pm 32.3 34.9 24.6 64 5.4 WNW 19 28 10 15 1003.3 1003.1 0.0
14/06:00pm 32.3 35.4 25.4 67 4.9 WNW 19 28 10 15 1002.9 1002.8 0.0
14/05:30pm 33.2 37.1 26.0 66 5.2 W 17 28 9 15 1002.7 1002.6 0.0
14/05:00pm 33.4 37.4 25.6 63 5.6 WNW 15 26 8 14 1002.4 1002.3 0.0
14/04:30pm 34.0 38.6 25.9 62 5.8 WNW 13 20 7 11 1002.0 1001.9 0.0
14/04:00pm 34.0 37.7 25.1 59 6.3 WNW 15 22 8 12 1002.1 1002.0 0.0
14/03:30pm 33.9 39.3 26.6 65 5.3 NW 11 20 6 11 1002.3 1002.2 0.0
14/03:00pm 33.1 37.5 25.6 64 5.4 WNW 13 20 7 11 1002.6 1002.5 0.0
14/02:30pm 32.7 36.9 26.0 68 4.8 WNW 15 24 8 13 1002.9 1002.8 0.0
14/02:00pm 33.6 38.1 26.4 66 5.2 NW 15 22 8 12 1003.3 1003.1 0.0
14/01:30pm 32.6 37.1 26.4 70 4.5 WNW 15 24 8 13 1003.4 1003.2 0.0
14/01:00pm 33.2 36.9 25.2 63 5.7 WNW 15 26 8 14 1003.8 1003.6 0.0
14/12:30pm 33.3 36.9 25.0 61 5.9 WNW 15 22 8 12 1004.1 1003.9 0.0
14/12:00pm 33.5 37.0 25.5 63 5.7 WNW 17 24 9 13 1004.5 1004.3 0.0
14/11:30am 33.1 35.6 25.4 64 5.5 W 22 30 12 16 1004.9 1004.7 0.0
14/11:00am 33.2 36.9 25.7 64 5.4 W 17 28 9 15 1005.2 1005.0 0.0
14/10:30am 32.5 36.1 25.6 67 4.9 W 17 24 9 13 1005.4 1005.2 0.0
14/10:00am 31.4 34.6 25.5 71 4.2 WNW 19 30 10 16 1005.9 1005.7 0.0
14/09:30am 30.8 33.6 25.2 72 4.0 WNW 20 30 11 16 1006.1 1005.9 0.0
14/09:00am 30.8 33.9 25.4 73 3.8 WNW 19 32 10 17 1005.9 1005.7 0.2
14/08:30am 30.4 33.9 25.5 75 3.5 WNW 17 28 9 15 1006.2 1006.0 0.2
14/08:00am 30.2 33.4 25.5 76 3.3 WNW 19 32 10 17 1006.5 1006.3 0.2
14/07:30am 30.0 34.4 26.2 80 2.7 WNW 15 30 8 16 1006.2 1006.0 0.2
14/07:00am 29.8 33.3 25.5 78 3.0 WNW 17 26 9 14 1006.0 1005.8 0.2
14/06:30am 29.5 33.9 25.7 80 2.7 WNW 13 22 7 12 1006.0 1005.8 0.2
14/06:00am 29.6 32.8 25.6 79 2.8 WNW 19 28 10 15 1005.7 1005.5 0.2
14/05:30am 29.5 33.3 25.9 81 2.6 WNW 17 30 9 16 1005.2 1005.0 0.2
14/05:00am 29.6 33.5 26.0 81 2.6 WNW 17 26 9 14 1004.6 1004.4 0.2
14/04:30am 29.5 33.1 26.1 82 2.4 WNW 19 28 10 15 1004.3 1004.1 0.2
14/04:00am 29.4 33.3 26.0 82 2.4 WNW 17 26 9 14 1004.2 1004.0 0.2
14/03:30am 29.4 33.5 25.8 81 2.6 WNW 15 24 8 13 1004.1 1003.9 0.2
14/03:00am 29.6 34.2 26.0 81 2.6 WNW 13 22 7 12 1004.0 1003.8 0.2
14/02:30am 29.5 34.6 26.1 82 2.4 WNW 11 19 6 10 1003.9 1003.7 0.2
14/02:00am 29.6 34.4 26.2 82 2.4 WNW 13 24 7 13 1004.0 1003.8 0.2
14/01:30am 29.4 34.4 26.0 82 2.4 WNW 11 24 6 13 1003.8 1003.6 0.2
14/01:00am 29.5 34.6 26.1 82 2.4 NW 11 28 6 15 1004.3 1004.1 0.2

Other Formats:

Comma delimited format used in spreadsheet applications
http://www.bom.gov.au/fwo/IDD60801/IDD60801.94139.axf

JavaScript Object Notation format (JSON) in row-major order
http://www.bom.gov.au/fwo/IDD60801/IDD60801.94139.json